createdAt,value
2022-10-20T00:00:11.880Z,101422.34
2022-10-20T00:02:38.547Z,101416.50
2022-10-20T00:05:05.183Z,101406.72
2022-10-20T00:07:31.479Z,101398.59
2022-10-20T00:09:57.797Z,101390.75
2022-10-20T00:12:25.463Z,101384.22
2022-10-20T00:14:51.755Z,101381.41
2022-10-20T00:17:18.024Z,101382.25
2022-10-20T00:19:46.958Z,101393.59
2022-10-20T00:22:13.263Z,101393.31
2022-10-20T00:24:39.589Z,101388.84
2022-10-20T00:27:05.876Z,101381.84
2022-10-20T00:29:33.528Z,101390.13
2022-10-20T00:31:59.825Z,101384.09
2022-10-20T00:34:26.092Z,101383.13
2022-10-20T00:36:52.383Z,101380.47
2022-10-20T00:39:18.694Z,101379.91
2022-10-20T00:41:44.984Z,101366.34
2022-10-20T00:44:29.900Z,101361.16
2022-10-20T00:46:57.778Z,101359.06
2022-10-20T00:49:25.422Z,101355.56
2022-10-20T00:51:52.636Z,101353.63
2022-10-20T00:54:20.980Z,101365.09
2022-10-20T00:56:48.103Z,101362.16
2022-10-20T00:59:16.324Z,101357.13
2022-10-20T01:01:43.345Z,101349.16
2022-10-20T01:04:11.572Z,101350.13
2022-10-20T01:06:38.104Z,101350.13
2022-10-20T01:09:05.166Z,101341.31
2022-10-20T01:11:35.533Z,101335.84
2022-10-20T01:14:13.680Z,101333.75
2022-10-20T01:16:46.487Z,101310.28
2022-10-20T01:19:25.783Z,101304.97
2022-10-20T01:22:01.801Z,101295.72
2022-10-20T01:24:39.047Z,101303.69
2022-10-20T01:27:24.483Z,101290.97
2022-10-20T01:29:53.539Z,101295.81
2022-10-20T01:32:22.554Z,101287.16
2022-10-20T01:34:53.197Z,101275.25
2022-10-20T01:37:47.617Z,101279.59
2022-10-20T01:40:16.299Z,101264.91
2022-10-20T01:42:45.816Z,101262.97
2022-10-20T01:45:13.240Z,101249.38
2022-10-20T01:47:40.348Z,101256.53
2022-10-20T01:50:07.562Z,101252.34
2022-10-20T01:52:34.158Z,101262.97
2022-10-20T01:55:00.703Z,101260.44
2022-10-20T01:57:34.238Z,101265.75
2022-10-20T02:00:04.926Z,101270.56
2022-10-20T02:02:38.399Z,101262.72
2022-10-20T02:05:18.516Z,101256.25
2022-10-20T02:07:44.819Z,101258.25
2022-10-20T02:10:13.324Z,101259.91
2022-10-20T02:12:41.805Z,101266.88
2022-10-20T02:15:12.046Z,101258.63
2022-10-20T02:17:40.467Z,101254.00
2022-10-20T02:20:07.385Z,101249.53
2022-10-20T02:22:34.025Z,101249.53
2022-10-20T02:25:00.971Z,101257.22
2022-10-20T02:27:29.500Z,101256.06
2022-10-20T02:29:57.317Z,101252.41
2022-10-20T02:32:25.268Z,101248.78
2022-10-20T02:34:51.550Z,101233.81
2022-10-20T02:37:17.913Z,101227.38
2022-10-20T02:39:44.257Z,101211.28
2022-10-20T02:42:10.567Z,101204.28
2022-10-20T02:44:36.874Z,101203.31
2022-10-20T02:47:03.165Z,101204.53
2022-10-20T02:49:30.811Z,101194.72
2022-10-20T02:51:57.111Z,101194.06
2022-10-20T02:54:23.428Z,101188.97
2022-10-20T02:56:49.706Z,101178.06
2022-10-20T02:59:16.720Z,101183.50
2022-10-20T03:01:43.317Z,101177.34
2022-10-20T03:04:09.612Z,101176.38
2022-10-20T03:06:37.274Z,101170.75
2022-10-20T03:09:03.737Z,101163.59
2022-10-20T03:11:30.068Z,101158.13
2022-10-20T03:13:56.380Z,101154.81
2022-10-20T03:16:22.668Z,101146.84
2022-10-20T03:18:48.980Z,101142.03
2022-10-20T03:21:15.256Z,101154.50
2022-10-20T03:23:42.916Z,101145.38
2022-10-20T03:26:10.478Z,101141.59
2022-10-20T03:28:36.766Z,101137.41
2022-10-20T03:31:03.555Z,101123.13
2022-10-20T03:33:30.050Z,101117.66
2022-10-20T03:35:56.763Z,101110.81
2022-10-20T03:38:23.184Z,101117.81
2022-10-20T03:40:50.860Z,101118.66
2022-10-20T03:43:17.163Z,101113.19
2022-10-20T03:45:43.914Z,101126.16
2022-10-20T03:48:10.720Z,101119.19
2022-10-20T03:50:38.059Z,101116.34
2022-10-20T03:53:04.509Z,101107.72
2022-10-20T03:55:30.844Z,101086.81
2022-10-20T03:57:58.509Z,101077.69
2022-10-20T04:00:24.859Z,101085.66
2022-10-20T04:02:51.220Z,101093.19
2022-10-20T04:05:19.006Z,101096.00
2022-10-20T04:07:45.507Z,101092.19
2022-10-20T04:10:13.003Z,101089.53
2022-10-20T04:12:39.501Z,101088.03
2022-10-20T04:15:08.094Z,101106.31
2022-10-20T04:17:34.397Z,101102.22
2022-10-20T04:20:00.738Z,101101.53
2022-10-20T04:22:27.017Z,101082.56
2022-10-20T04:24:53.316Z,101070.59
2022-10-20T04:27:19.615Z,101066.81
2022-10-20T04:29:46.576Z,101064.69
2022-10-20T04:32:14.330Z,101059.34
2022-10-20T04:34:40.587Z,101056.50
2022-10-20T04:37:06.907Z,101054.53
2022-10-20T04:39:33.198Z,101050.22
2022-10-20T04:41:59.498Z,101052.88
2022-10-20T04:44:25.772Z,101042.22
2022-10-20T04:46:53.603Z,101036.47
2022-10-20T04:49:21.271Z,101038.81
2022-10-20T04:51:47.598Z,101031.66
2022-10-20T04:54:13.913Z,101024.19
2022-10-20T04:56:40.224Z,101024.34
2022-10-20T04:59:09.573Z,101028.31
2022-10-20T05:01:38.990Z,101028.66
2022-10-20T05:04:05.289Z,101024.56
2022-10-20T05:06:33.343Z,101016.72
2022-10-20T05:09:00.700Z,101023.56
2022-10-20T05:11:28.794Z,101016.88
2022-10-20T05:13:55.418Z,101019.69
2022-10-20T05:16:22.085Z,101011.88
2022-10-20T05:18:48.804Z,100995.75
2022-10-20T05:21:18.537Z,100984.28
2022-10-20T05:23:46.400Z,100971.97
2022-10-20T05:26:14.266Z,100973.63
2022-10-20T05:28:43.449Z,100987.28
2022-10-20T05:31:09.727Z,101008.72
2022-10-20T05:33:36.232Z,101003.53
2022-10-20T05:36:06.626Z,101011.69
2022-10-20T05:38:32.919Z,101018.47
2022-10-20T05:41:06.156Z,101007.00
2022-10-20T05:43:32.433Z,100998.34
2022-10-20T05:45:58.738Z,101022.28
2022-10-20T05:48:25.047Z,101023.94
2022-10-20T05:50:51.378Z,101020.59
2022-10-20T05:53:18.006Z,101022.72
2022-10-20T05:55:44.290Z,101004.66
2022-10-20T05:58:12.092Z,100995.31
2022-10-20T06:00:38.393Z,100988.00
2022-10-20T06:03:04.707Z,100997.81
2022-10-20T06:05:30.994Z,100993.69
2022-10-20T06:07:57.338Z,100994.69
2022-10-20T06:10:23.656Z,100997.34
2022-10-20T06:12:50.090Z,101002.81
2022-10-20T06:15:17.817Z,100989.69
2022-10-20T06:17:46.221Z,100995.84
2022-10-20T06:20:12.505Z,101003.31
2022-10-20T06:22:39.209Z,101021.28
2022-10-20T06:25:06.552Z,101017.63
2022-10-20T06:27:32.862Z,101035.25
2022-10-20T06:29:59.171Z,101045.88
2022-10-20T06:32:26.841Z,101030.75
2022-10-20T06:34:53.126Z,101020.81
2022-10-20T06:37:19.516Z,101024.28
2022-10-20T06:39:45.832Z,101018.97
2022-10-20T06:42:12.416Z,101021.47
2022-10-20T06:44:38.824Z,101022.16
2022-10-20T06:47:05.112Z,101019.81
2022-10-20T06:49:32.737Z,101021.03
2022-10-20T06:51:59.074Z,101020.03
2022-10-20T06:54:25.408Z,101020.84
2022-10-20T06:56:51.702Z,101014.72
2022-10-20T06:59:18.040Z,101009.06
2022-10-20T07:01:44.366Z,101006.09
2022-10-20T07:04:13.531Z,100996.97
2022-10-20T07:06:42.257Z,100996.81
2022-10-20T07:09:11.920Z,101001.63
2022-10-20T07:11:38.262Z,100996.16
2022-10-20T07:14:04.778Z,101003.00
2022-10-20T07:16:32.357Z,101011.66
2022-10-20T07:18:58.752Z,101012.50
2022-10-20T07:21:27.583Z,101014.16
2022-10-20T07:23:57.158Z,101006.69
2022-10-20T07:26:24.516Z,101003.06
2022-10-20T07:28:55.583Z,101002.06
2022-10-20T07:31:23.549Z,101005.41
2022-10-20T07:34:13.418Z,100993.94
2022-10-20T07:36:39.985Z,100997.97
2022-10-20T07:39:07.743Z,100992.81
2022-10-20T07:41:34.427Z,100997.81
2022-10-20T07:44:00.730Z,100990.16
2022-10-20T07:46:27.017Z,100988.84
2022-10-20T07:48:53.300Z,100987.19
2022-10-20T07:51:27.253Z,100987.38
2022-10-20T07:53:58.188Z,100983.56
2022-10-20T07:56:29.049Z,100988.72
2022-10-20T07:58:55.394Z,100989.41
2022-10-20T08:01:21.724Z,100992.38
2022-10-20T08:03:48.042Z,100990.41
2022-10-20T08:06:14.380Z,100993.75
2022-10-20T08:08:40.714Z,101008.06
2022-10-20T08:11:07.431Z,101002.41
2022-10-20T08:13:35.094Z,101004.41
2022-10-20T08:16:01.687Z,100994.78
2022-10-20T08:18:34.072Z,101002.78
2022-10-20T08:21:06.709Z,101001.63
2022-10-20T08:23:33.041Z,100989.31
2022-10-20T08:25:59.331Z,100967.97
2022-10-20T08:28:26.339Z,100980.63
2022-10-20T08:30:54.765Z,100986.66
2022-10-20T08:33:21.131Z,100988.47
2022-10-20T08:35:47.458Z,100996.13
2022-10-20T08:38:13.760Z,101000.47
2022-10-20T08:40:41.342Z,100998.47
2022-10-20T08:43:11.518Z,101001.28
2022-10-20T08:45:39.341Z,100997.63
2022-10-20T08:48:10.030Z,101005.81
2022-10-20T08:50:36.717Z,101002.28
2022-10-20T08:53:03.079Z,101007.63
2022-10-20T08:55:30.750Z,100999.63
2022-10-20T08:58:00.261Z,100988.97
2022-10-20T09:00:27.061Z,100985.63
2022-10-20T09:02:53.922Z,100989.09
2022-10-20T09:05:24.605Z,100986.44
2022-10-20T09:07:51.989Z,100986.94
2022-10-20T09:10:24.046Z,100985.75
2022-10-20T09:12:51.006Z,100979.25
2022-10-20T09:15:18.256Z,100972.91
2022-10-20T09:17:46.603Z,100974.75
2022-10-20T09:20:16.378Z,100976.22
2022-10-20T09:22:44.232Z,100976.91
2022-10-20T09:25:13.930Z,100970.38
2022-10-20T09:27:41.204Z,100966.38
2022-10-20T09:30:13.455Z,100970.34
2022-10-20T09:32:47.774Z,100971.69
2022-10-20T09:35:19.369Z,100974.31
2022-10-20T09:37:50.680Z,100961.75
2022-10-20T09:40:18.050Z,100944.22
2022-10-20T09:42:46.600Z,100963.19
2022-10-20T09:45:17.581Z,100966.91
2022-10-20T09:47:45.840Z,100985.59
2022-10-20T09:50:18.420Z,100991.44
2022-10-20T09:52:45.426Z,100990.50
2022-10-20T09:55:19.919Z,100983.66
2022-10-20T09:57:47.099Z,100980.16
2022-10-20T10:00:36.232Z,100981.97
2022-10-20T10:03:07.999Z,100979.97
2022-10-20T10:05:34.488Z,100991.97
2022-10-20T10:08:00.794Z,100986.44
2022-10-20T10:10:29.275Z,100980.94
2022-10-20T10:12:57.559Z,100985.09
2022-10-20T10:15:25.904Z,100979.59
2022-10-20T10:17:52.587Z,100990.94
2022-10-20T10:20:30.925Z,100973.88
2022-10-20T10:23:18.851Z,100972.59
2022-10-20T10:25:46.815Z,100987.78
2022-10-20T10:28:20.620Z,100984.59
2022-10-20T10:30:49.501Z,100978.97
2022-10-20T10:33:24.815Z,100978.66
2022-10-20T10:35:51.195Z,100971.97
2022-10-20T10:38:17.530Z,100970.50
2022-10-20T10:40:49.907Z,100965.50
2022-10-20T10:43:24.132Z,100958.50
2022-10-20T10:45:51.806Z,100957.66
2022-10-20T10:48:36.914Z,100964.19
2022-10-20T10:51:05.804Z,100957.16
2022-10-20T10:53:42.287Z,100960.03
2022-10-20T10:56:15.869Z,100956.53
2022-10-20T10:58:45.279Z,100949.69
2022-10-20T11:01:32.558Z,100943.53
2022-10-20T11:04:08.574Z,100952.69
2022-10-20T11:06:38.979Z,100943.03
2022-10-20T11:09:10.640Z,100942.88
2022-10-20T11:11:48.290Z,100953.38
2022-10-20T11:16:51.155Z,100940.19
2022-10-20T11:19:35.195Z,100952.88
2022-10-20T11:22:09.418Z,100962.72
2022-10-20T11:24:42.620Z,100950.38
2022-10-20T11:27:12.102Z,100942.72
2022-10-20T11:29:41.168Z,100928.56
2022-10-20T11:32:11.763Z,100927.72
2022-10-20T11:34:40.065Z,100918.72
2022-10-20T11:37:13.311Z,100922.22
2022-10-20T11:39:41.609Z,100915.03
2022-10-20T11:42:16.797Z,100919.19
2022-10-20T11:44:44.658Z,100904.84
2022-10-20T11:47:13.349Z,100901.66
2022-10-20T11:49:40.383Z,100889.81
2022-10-20T11:52:24.365Z,100874.25
2022-10-20T11:54:58.239Z,100862.06
2022-10-20T11:57:30.178Z,100852.69
2022-10-20T12:00:10.232Z,100851.66
2022-10-20T12:02:55.218Z,100852.94
2022-10-20T12:05:34.487Z,100853.06
2022-10-20T12:08:30.490Z,100861.38
2022-10-20T12:11:02.637Z,100865.28
2022-10-20T12:13:35.928Z,100869.56
2022-10-20T12:16:02.316Z,100853.19
2022-10-20T12:18:29.846Z,100846.66
2022-10-20T12:20:57.532Z,100856.78
2022-10-20T12:23:42.580Z,100862.03
2022-10-20T12:26:23.793Z,100854.50
2022-10-20T12:28:51.416Z,100849.72
2022-10-20T12:31:17.810Z,100848.00
2022-10-20T12:33:59.977Z,100853.34
2022-10-20T12:36:28.965Z,100852.88
2022-10-20T12:39:08.171Z,100859.41
2022-10-20T12:41:35.765Z,100852.06
2022-10-20T12:44:05.311Z,100850.03
2022-10-20T12:46:32.536Z,100840.59
2022-10-20T12:49:00.612Z,100840.72
2022-10-20T12:51:38.061Z,100842.00
2022-10-20T12:54:07.411Z,100836.41
2022-10-20T12:56:36.181Z,100837.13
2022-10-20T12:59:23.532Z,100843.47
2022-10-20T13:02:08.303Z,100844.03
2022-10-20T13:04:55.124Z,100844.22
2022-10-20T13:07:36.965Z,100840.69
2022-10-20T13:10:18.397Z,100834.97
2022-10-20T13:12:44.757Z,100834.22
2022-10-20T13:15:13.294Z,100835.88
2022-10-20T13:17:51.167Z,100841.06
2022-10-20T13:20:29.589Z,100830.34
2022-10-20T13:22:56.569Z,100829.97
2022-10-20T13:25:32.401Z,100819.63
2022-10-20T13:28:06.585Z,100812.25
2022-10-20T13:30:33.925Z,100803.00
2022-10-20T13:33:18.017Z,100807.97
2022-10-20T13:35:54.474Z,100798.59
2022-10-20T13:38:24.279Z,100786.47
2022-10-20T13:40:53.673Z,100794.78
2022-10-20T13:43:27.809Z,100781.00
2022-10-20T13:46:01.632Z,100786.78
2022-10-20T13:48:34.551Z,100785.41
2022-10-20T13:51:03.885Z,100770.63
2022-10-20T13:53:31.381Z,100782.41
2022-10-20T13:55:59.643Z,100780.00
2022-10-20T13:58:26.392Z,100781.06
2022-10-20T14:00:56.298Z,100777.41
2022-10-20T14:03:22.698Z,100777.03
2022-10-20T14:05:50.027Z,100773.31
2022-10-20T14:08:21.258Z,100766.31
2022-10-20T14:10:51.065Z,100764.00
2022-10-20T14:13:18.785Z,100760.06
2022-10-20T14:15:46.682Z,100763.78
2022-10-20T14:18:20.828Z,100763.31
2022-10-20T14:20:53.494Z,100765.34
2022-10-20T14:23:22.278Z,100761.84
2022-10-20T14:25:49.709Z,100768.25
2022-10-20T14:28:18.782Z,100762.91
2022-10-20T14:30:45.980Z,100760.22
2022-10-20T14:33:13.908Z,100748.88
2022-10-20T14:35:41.567Z,100752.59
2022-10-20T14:38:15.326Z,100752.97
2022-10-20T14:40:48.749Z,100745.41
2022-10-20T14:43:16.768Z,100744.75
2022-10-20T14:45:50.949Z,100753.44
2022-10-20T14:48:17.279Z,100754.34
2022-10-20T14:50:43.671Z,100752.75
2022-10-20T14:53:29.001Z,100747.97
2022-10-20T14:55:57.603Z,100741.81
2022-10-20T14:58:31.226Z,100745.28
2022-10-20T15:01:18.887Z,100745.47
2022-10-20T15:03:45.292Z,100742.28
2022-10-20T15:06:15.242Z,100741.13
2022-10-20T15:08:52.049Z,100736.09
2022-10-20T15:11:21.929Z,100735.69
2022-10-20T15:13:50.313Z,100728.69
2022-10-20T15:16:31.285Z,100732.09
2022-10-20T15:19:11.017Z,100733.88
2022-10-20T15:21:37.293Z,100735.25
2022-10-20T15:24:04.466Z,100726.13
2022-10-20T15:26:32.117Z,100725.25
2022-10-20T15:28:58.374Z,100721.66
2022-10-20T15:31:25.860Z,100732.34
2022-10-20T15:33:52.654Z,100728.81
2022-10-20T15:36:20.314Z,100724.69
2022-10-20T15:38:46.626Z,100726.09
2022-10-20T15:41:13.517Z,100732.03
2022-10-20T15:43:41.321Z,100728.06
2022-10-20T15:46:09.174Z,100722.09
2022-10-20T15:48:35.465Z,100721.19
2022-10-20T15:51:01.910Z,100723.22
2022-10-20T15:53:28.206Z,100715.41
2022-10-20T15:55:54.497Z,100712.09
2022-10-20T15:58:20.793Z,100706.72
2022-10-20T16:00:48.449Z,100706.06
2022-10-20T16:03:15.968Z,100698.22
2022-10-20T16:05:42.260Z,100702.72
2022-10-20T16:08:08.629Z,100701.06
2022-10-20T16:10:34.923Z,100703.09
2022-10-20T16:13:01.184Z,100697.34
2022-10-20T16:15:30.230Z,100703.69
2022-10-20T16:17:59.051Z,100696.22
2022-10-20T16:20:25.342Z,100697.44
2022-10-20T16:22:51.643Z,100700.31
2022-10-20T16:25:18.091Z,100695.34
2022-10-20T16:27:44.425Z,100697.38
2022-10-20T16:30:10.774Z,100699.88
2022-10-20T16:32:37.442Z,100694.88
2022-10-20T16:35:05.860Z,100694.25
2022-10-20T16:37:32.880Z,100704.34
2022-10-20T16:39:59.577Z,100689.66
2022-10-20T16:42:26.190Z,100691.50
2022-10-20T16:44:52.492Z,100692.88
2022-10-20T16:47:18.804Z,100692.28
2022-10-20T16:49:45.089Z,100699.00
2022-10-20T16:52:12.723Z,100701.41
2022-10-20T16:54:39.065Z,100704.91
2022-10-20T16:57:05.379Z,100699.50
2022-10-20T16:59:31.699Z,100702.34
2022-10-20T17:01:58.010Z,100694.88
2022-10-20T17:04:24.304Z,100689.75
2022-10-20T17:06:50.630Z,100694.44
2022-10-20T17:09:18.347Z,100689.00
2022-10-20T17:11:44.653Z,100687.75
2022-10-20T17:14:11.297Z,100689.31
2022-10-20T17:16:37.743Z,100692.63
2022-10-20T17:19:04.157Z,100689.31
2022-10-20T17:21:31.273Z,100684.53
2022-10-20T17:23:57.587Z,100677.53
2022-10-20T17:26:26.337Z,100671.88
2022-10-20T17:28:53.885Z,100679.09
2022-10-20T17:31:20.279Z,100677.06
2022-10-20T17:33:46.944Z,100675.41
2022-10-20T17:36:13.266Z,100677.59
2022-10-20T17:38:39.921Z,100687.50
2022-10-20T17:41:07.211Z,100694.69
2022-10-20T17:43:37.444Z,100698.38
2022-10-20T17:46:05.262Z,100694.69
2022-10-20T17:48:31.740Z,100694.22
2022-10-20T17:50:58.593Z,100689.06
2022-10-20T17:53:24.893Z,100679.19
2022-10-20T17:55:51.179Z,100673.38
2022-10-20T17:58:19.586Z,100676.50
2022-10-20T18:00:56.889Z,100667.03
2022-10-20T18:03:23.408Z,100668.84
2022-10-20T18:05:49.695Z,100657.16
2022-10-20T18:08:15.998Z,100659.66
2022-10-20T18:10:43.826Z,100658.00
2022-10-20T18:13:10.495Z,100655.50
2022-10-20T18:15:43.490Z,100667.84
2022-10-20T18:18:11.148Z,100669.88
2022-10-20T18:20:37.468Z,100666.19
2022-10-20T18:23:03.777Z,100667.03
2022-10-20T18:25:30.081Z,100673.56
2022-10-20T18:27:56.373Z,100678.09
2022-10-20T18:30:22.728Z,100678.91
2022-10-20T18:32:49.024Z,100670.88
2022-10-20T18:35:16.836Z,100659.19
2022-10-20T18:37:43.140Z,100654.22
2022-10-20T18:40:09.889Z,100654.22
2022-10-20T18:42:36.292Z,100663.25
2022-10-20T18:45:02.691Z,100651.91
2022-10-20T18:47:29.024Z,100650.06
2022-10-20T18:49:55.315Z,100641.88
2022-10-20T18:52:22.929Z,100644.56
2022-10-20T18:54:49.187Z,100655.25
2022-10-20T18:57:15.478Z,100652.56
2022-10-20T18:59:41.777Z,100653.59
2022-10-20T19:02:09.696Z,100656.25
2022-10-20T19:04:35.968Z,100653.59
2022-10-20T19:07:02.284Z,100646.22
2022-10-20T19:09:29.957Z,100653.41
2022-10-20T19:11:56.270Z,100656.25
2022-10-20T19:14:22.581Z,100656.25
2022-10-20T19:16:49.230Z,100654.59
2022-10-20T19:19:15.546Z,100645.09
2022-10-20T19:21:41.845Z,100649.59
2022-10-20T19:24:09.251Z,100643.25
2022-10-20T19:26:38.504Z,100636.06
2022-10-20T19:29:06.988Z,100633.56
2022-10-20T19:31:34.559Z,100620.34
2022-10-20T19:34:02.018Z,100623.88
2022-10-20T19:36:28.671Z,100632.88
2022-10-20T19:38:54.976Z,100615.84
2022-10-20T19:41:21.962Z,100625.44
2022-10-20T19:43:49.822Z,100615.78
2022-10-20T19:46:17.097Z,100609.97
2022-10-20T19:48:44.163Z,100609.31
2022-10-20T19:51:10.559Z,100594.69
2022-10-20T19:53:36.966Z,100594.69
2022-10-20T19:56:03.485Z,100591.38
2022-10-20T19:58:29.786Z,100583.53
2022-10-20T20:00:58.441Z,100591.47
2022-10-20T20:03:25.232Z,100587.97
2022-10-20T20:05:56.564Z,100592.09
2022-10-20T20:08:22.927Z,100584.38
2022-10-20T20:10:51.250Z,100590.81
2022-10-20T20:13:17.576Z,100584.19
2022-10-20T20:15:43.877Z,100585.75
2022-10-20T20:18:11.521Z,100584.28
2022-10-20T20:20:38.740Z,100586.31
2022-10-20T20:23:05.184Z,100584.81
2022-10-20T20:25:35.363Z,100579.69
2022-10-20T20:28:01.717Z,100575.16
2022-10-20T20:30:28.016Z,100571.28
2022-10-20T20:32:54.478Z,100575.81
2022-10-20T20:35:22.135Z,100572.47
2022-10-20T20:37:48.444Z,100576.63
2022-10-20T20:40:14.853Z,100568.44
2022-10-20T20:42:41.152Z,100568.25
2022-10-20T20:45:07.960Z,100568.91
2022-10-20T20:47:34.417Z,100563.09
2022-10-20T20:50:00.855Z,100560.16
2022-10-20T20:52:28.518Z,100560.53
2022-10-20T20:54:54.974Z,100547.81
2022-10-20T20:57:21.290Z,100559.34
2022-10-20T20:59:47.628Z,100557.69
2022-10-20T21:02:14.002Z,100560.06
2022-10-20T21:04:40.373Z,100566.06
2022-10-20T21:07:06.691Z,100567.53
2022-10-20T21:09:34.982Z,100577.03
2022-10-20T21:12:01.747Z,100574.34
2022-10-20T21:14:28.052Z,100583.16
2022-10-20T21:16:54.360Z,100574.13
2022-10-20T21:19:20.666Z,100577.66
2022-10-20T21:21:47.964Z,100577.66
2022-10-20T21:24:14.259Z,100578.94
2022-10-20T21:26:41.915Z,100577.47
2022-10-20T21:29:08.206Z,100570.47
2022-10-20T21:31:34.538Z,100572.13
2022-10-20T21:34:01.925Z,100581.31
2022-10-20T21:36:29.140Z,100590.16
2022-10-20T21:38:55.448Z,100607.84
2022-10-20T21:41:22.705Z,100601.50
2022-10-20T21:43:51.141Z,100602.50
2022-10-20T21:46:18.460Z,100597.81
2022-10-20T21:48:45.427Z,100602.97
2022-10-20T21:51:12.961Z,100604.00
2022-10-20T21:53:39.485Z,100605.47
2022-10-20T21:56:06.177Z,100603.63
2022-10-20T21:58:32.513Z,100598.94
2022-10-20T22:01:00.300Z,100593.78
2022-10-20T22:03:26.687Z,100609.63
2022-10-20T22:05:53.036Z,100602.22
2022-10-20T22:08:19.301Z,100599.56
2022-10-20T22:10:45.588Z,100589.88
2022-10-20T22:13:11.906Z,100590.72
2022-10-20T22:15:39.062Z,100584.75
2022-10-20T22:18:06.672Z,100581.44
2022-10-20T22:20:34.841Z,100582.63
2022-10-20T22:23:02.819Z,100580.31
2022-10-20T22:25:29.445Z,100585.28
2022-10-20T22:27:55.747Z,100574.13
2022-10-20T22:30:22.025Z,100561.44
2022-10-20T22:32:48.303Z,100561.63
2022-10-20T22:35:15.957Z,100554.63
2022-10-20T22:37:42.253Z,100546.00
2022-10-20T22:40:09.001Z,100542.09
2022-10-20T22:42:35.279Z,100542.94
2022-10-20T22:45:01.563Z,100545.25
2022-10-20T22:47:27.861Z,100542.56
2022-10-20T22:49:54.167Z,100536.41
2022-10-20T22:52:21.816Z,100529.22
2022-10-20T22:54:48.118Z,100525.72
2022-10-20T22:57:14.499Z,100523.03
2022-10-20T22:59:40.798Z,100513.72
2022-10-20T23:02:07.124Z,100499.00
2022-10-20T23:04:33.435Z,100504.34
2022-10-20T23:09:32.708Z,100514.66
2022-10-20T23:11:59.025Z,100526.81
2022-10-20T23:14:25.330Z,100529.28
2022-10-20T23:16:51.624Z,100538.13
2022-10-20T23:19:17.998Z,100549.63
2022-10-20T23:21:44.306Z,100546.78
2022-10-20T23:24:10.594Z,100544.13
2022-10-20T23:26:38.241Z,100548.28
2022-10-20T23:29:04.509Z,100547.25
2022-10-20T23:31:30.808Z,100539.88
2022-10-20T23:33:57.268Z,100532.06
2022-10-20T23:36:23.714Z,100527.91
2022-10-20T23:38:50.008Z,100542.56
2022-10-20T23:41:16.315Z,100544.00
2022-10-20T23:43:43.997Z,100543.22
2022-10-20T23:46:10.324Z,100545.06
2022-10-20T23:48:36.597Z,100537.03
2022-10-20T23:51:02.926Z,100535.38
2022-10-20T23:53:29.600Z,100534.56
2022-10-20T23:55:55.876Z,100548.28
2022-10-20T23:58:22.186Z,100535.94
